createdAt,value
2019-05-09T00:00:43.727Z,9.30
2019-05-09T00:03:13.617Z,9.30
2019-05-09T00:05:43.904Z,9.30
2019-05-09T00:08:13.732Z,9.20
2019-05-09T00:10:44.258Z,9.20
2019-05-09T00:13:13.698Z,9.10
2019-05-09T00:15:43.651Z,9.10
2019-05-09T00:18:14.318Z,9.10
2019-05-09T00:20:50.073Z,9.00
2019-05-09T00:23:18.555Z,9.00
2019-05-09T00:25:46.987Z,8.90
2019-05-09T00:28:15.429Z,8.90
2019-05-09T00:31:03.802Z,8.90
2019-05-09T00:33:34.280Z,8.90
2019-05-09T00:36:04.408Z,8.80
2019-05-09T00:38:34.791Z,8.80
2019-05-09T00:41:03.852Z,8.80
2019-05-09T00:43:34.236Z,8.70
2019-05-09T00:46:04.502Z,8.60
2019-05-09T00:48:37.723Z,8.70
2019-05-09T00:51:06.333Z,8.60
2019-05-09T00:53:34.773Z,8.60
2019-05-09T00:56:04.137Z,8.60
2019-05-09T00:58:33.566Z,8.60
2019-05-09T01:01:04.405Z,8.50
2019-05-09T01:03:34.030Z,8.50
2019-05-09T01:06:04.038Z,8.40
2019-05-09T01:08:33.668Z,8.40
2019-05-09T01:11:11.328Z,8.40
2019-05-09T01:13:38.108Z,8.40
2019-05-09T01:16:06.676Z,8.40
2019-05-09T01:18:35.777Z,8.40
2019-05-09T01:21:04.342Z,8.50
2019-05-09T01:23:34.338Z,8.50
2019-05-09T01:26:04.019Z,8.50
2019-05-09T01:28:33.900Z,8.50
2019-05-09T01:31:04.103Z,8.40
2019-05-09T01:33:34.562Z,8.40
2019-05-09T01:36:03.875Z,8.40
2019-05-09T01:38:33.888Z,8.50
2019-05-09T01:41:04.005Z,8.40
2019-05-09T01:43:33.815Z,8.40
2019-05-09T01:46:03.684Z,8.40
2019-05-09T01:48:34.080Z,8.40
2019-05-09T01:51:03.375Z,8.30
2019-05-09T01:53:33.675Z,8.40
2019-05-09T01:56:03.646Z,8.40
2019-05-09T01:58:34.314Z,8.40
2019-05-09T02:01:04.533Z,8.40
2019-05-09T02:03:33.673Z,8.40
2019-05-09T02:06:03.522Z,8.50
2019-05-09T02:08:34.477Z,8.40
2019-05-09T02:11:03.756Z,8.50
2019-05-09T02:13:33.894Z,8.50
2019-05-09T02:16:16.060Z,8.50
2019-05-09T02:18:55.409Z,8.40
2019-05-09T02:21:24.155Z,8.40
2019-05-09T02:23:53.688Z,8.30
2019-05-09T02:26:24.081Z,8.40
2019-05-09T02:28:53.799Z,8.50
2019-05-09T02:31:24.524Z,8.40
2019-05-09T02:33:54.102Z,8.40
2019-05-09T02:36:22.899Z,8.60
2019-05-09T02:38:51.348Z,8.60
2019-05-09T02:41:20.134Z,8.70
2019-05-09T02:43:49.853Z,8.70
2019-05-09T02:46:29.110Z,8.60
2019-05-09T02:48:59.148Z,8.60
2019-05-09T02:51:29.222Z,8.70
2019-05-09T02:53:58.524Z,8.70
2019-05-09T02:56:29.522Z,8.60
2019-05-09T02:58:59.039Z,8.60
2019-05-09T03:01:45.598Z,8.60
2019-05-09T03:04:14.079Z,8.60
2019-05-09T03:06:42.502Z,8.60
2019-05-09T03:09:11.012Z,8.70
2019-05-09T03:11:39.609Z,8.70
2019-05-09T03:14:09.106Z,8.70
2019-05-09T03:16:39.766Z,8.80
2019-05-09T03:19:09.158Z,8.80
2019-05-09T03:21:39.580Z,8.80
2019-05-09T03:24:09.899Z,8.90
2019-05-09T03:26:39.854Z,9.00
2019-05-09T03:29:19.191Z,9.00
2019-05-09T03:31:50.048Z,8.90
2019-05-09T03:34:19.474Z,8.90
2019-05-09T03:36:48.359Z,8.90
2019-05-09T03:39:18.549Z,8.90
2019-05-09T03:41:48.785Z,8.90
2019-05-09T03:44:17.936Z,8.90
2019-05-09T03:46:48.160Z,9.00
2019-05-09T03:49:18.227Z,8.90
2019-05-09T03:51:48.281Z,8.90
2019-05-09T03:54:18.322Z,8.90
2019-05-09T03:56:57.841Z,8.80
2019-05-09T03:59:27.861Z,8.80
2019-05-09T04:01:58.793Z,8.80
2019-05-09T04:04:28.103Z,8.80
2019-05-09T04:06:58.044Z,8.70
2019-05-09T04:09:27.425Z,8.80
2019-05-09T04:11:58.404Z,8.80
2019-05-09T04:14:28.387Z,8.90
2019-05-09T04:16:57.556Z,8.90
2019-05-09T04:19:27.602Z,9.00
2019-05-09T04:21:57.624Z,9.00
2019-05-09T04:24:28.086Z,9.10
2019-05-09T04:27:01.247Z,9.10
2019-05-09T04:29:29.676Z,9.00
2019-05-09T04:31:58.109Z,9.00
2019-05-09T04:34:27.484Z,9.00
2019-05-09T04:36:57.666Z,8.90
2019-05-09T04:39:28.228Z,9.30
2019-05-09T04:42:03.638Z,9.60
2019-05-09T04:44:29.188Z,9.50
2019-05-09T04:47:01.694Z,9.70
2019-05-09T04:49:29.914Z,9.70
2019-05-09T04:51:58.421Z,9.70
2019-05-09T04:54:28.030Z,9.70
2019-05-09T04:56:57.459Z,9.80
2019-05-09T04:59:28.130Z,10.20
2019-05-09T05:02:08.693Z,11.00
2019-05-09T05:04:37.381Z,10.80
2019-05-09T05:07:07.667Z,10.90
2019-05-09T05:09:37.981Z,10.70
2019-05-09T05:12:08.385Z,10.50
2019-05-09T05:14:38.479Z,10.80
2019-05-09T05:17:10.944Z,11.20
2019-05-09T05:19:38.323Z,11.60
2019-05-09T05:22:08.577Z,11.70
2019-05-09T05:24:41.412Z,12.10
2019-05-09T05:27:09.983Z,13.20
2019-05-09T05:29:38.534Z,14.20
2019-05-09T05:32:08.791Z,14.80
2019-05-09T05:34:39.564Z,15.60
2019-05-09T05:37:08.133Z,15.30
2019-05-09T05:39:37.501Z,15.30
2019-05-09T05:42:08.098Z,14.70
2019-05-09T05:44:38.392Z,14.60
2019-05-09T05:47:08.192Z,14.40
2019-05-09T05:49:38.461Z,14.40
2019-05-09T05:52:08.026Z,13.70
2019-05-09T05:54:37.855Z,13.10
2019-05-09T05:57:08.450Z,13.90
2019-05-09T05:59:40.052Z,14.60
2019-05-09T06:02:08.660Z,14.80
2019-05-09T06:04:38.172Z,15.10
2019-05-09T06:07:07.977Z,15.10
2019-05-09T06:09:39.883Z,15.80
2019-05-09T06:12:12.556Z,16.10
2019-05-09T06:14:48.184Z,16.20
2019-05-09T06:17:19.241Z,17.00
2019-05-09T06:19:48.317Z,16.90
2019-05-09T06:22:18.264Z,16.20
2019-05-09T06:24:49.038Z,16.20
2019-05-09T06:27:21.698Z,17.20
2019-05-09T06:29:57.921Z,16.30
2019-05-09T06:32:29.800Z,14.80
2019-05-09T06:34:58.830Z,14.30
2019-05-09T06:37:27.824Z,14.30
2019-05-09T06:39:58.717Z,15.30
2019-05-09T06:42:30.113Z,15.30
2019-05-09T06:45:07.693Z,15.40
2019-05-09T06:47:43.672Z,15.10
2019-05-09T06:50:18.492Z,14.80
2019-05-09T06:52:49.441Z,14.30
2019-05-09T06:55:22.034Z,14.40
2019-05-09T06:57:53.057Z,14.60
2019-05-09T07:00:49.100Z,14.20
2019-05-09T07:03:29.221Z,14.00
2019-05-09T07:05:59.979Z,14.10
2019-05-09T07:08:31.651Z,13.70
2019-05-09T07:11:03.063Z,13.70
2019-05-09T07:13:38.224Z,13.50
2019-05-09T07:16:12.924Z,13.50
2019-05-09T07:18:44.863Z,13.60
2019-05-09T07:21:19.010Z,13.50
2019-05-09T07:23:51.896Z,13.60
2019-05-09T07:26:28.041Z,14.30
2019-05-09T07:28:59.612Z,14.90
2019-05-09T07:31:33.712Z,14.70
2019-05-09T07:34:08.550Z,14.90
2019-05-09T07:36:41.249Z,14.60
2019-05-09T07:39:09.878Z,14.90
2019-05-09T07:41:38.535Z,14.50
2019-05-09T07:44:09.373Z,14.00
2019-05-09T07:46:42.831Z,13.80
2019-05-09T07:49:12.906Z,13.60
2019-05-09T07:51:41.341Z,13.40
2019-05-09T07:54:22.013Z,13.50
2019-05-09T07:56:44.669Z,14.10
2019-05-09T07:59:18.221Z,14.80
2019-05-09T08:01:49.246Z,14.90
2019-05-09T08:04:18.350Z,14.60
2019-05-09T08:06:48.663Z,14.20
2019-05-09T08:09:20.675Z,14.00
2019-05-09T08:11:53.987Z,13.60
2019-05-09T08:14:28.111Z,13.60
2019-05-09T08:16:58.214Z,13.60
2019-05-09T08:19:27.573Z,13.70
2019-05-09T08:21:57.537Z,13.70
2019-05-09T08:24:30.822Z,13.70
2019-05-09T08:27:03.207Z,14.00
2019-05-09T08:29:33.143Z,14.20
2019-05-09T08:32:02.237Z,14.50
2019-05-09T08:34:32.512Z,14.70
2019-05-09T08:37:04.856Z,14.50
2019-05-09T08:39:38.086Z,15.20
2019-05-09T08:42:08.135Z,15.50
2019-05-09T08:44:37.764Z,15.30
2019-05-09T08:47:07.821Z,14.80
2019-05-09T08:49:49.606Z,14.80
2019-05-09T08:52:19.919Z,14.40
2019-05-09T08:54:57.845Z,14.20
2019-05-09T08:57:28.655Z,13.90
2019-05-09T08:59:59.856Z,13.90
2019-05-09T09:02:31.646Z,13.80
2019-05-09T09:05:04.843Z,13.80
2019-05-09T09:07:37.976Z,13.90
2019-05-09T09:10:11.391Z,13.80
2019-05-09T09:12:44.448Z,13.90
2019-05-09T09:15:17.777Z,13.50
2019-05-09T09:17:43.897Z,13.80
2019-05-09T09:20:14.293Z,14.00
2019-05-09T09:22:48.008Z,14.10
2019-05-09T09:25:20.097Z,14.10
2019-05-09T09:27:51.047Z,14.00
2019-05-09T09:30:24.772Z,13.90
2019-05-09T09:32:50.403Z,13.80
2019-05-09T09:35:21.479Z,13.50
2019-05-09T09:37:52.416Z,13.60
2019-05-09T09:40:20.217Z,13.70
2019-05-09T09:42:49.402Z,13.70
2019-05-09T09:45:22.305Z,13.70
2019-05-09T09:47:51.550Z,13.60
2019-05-09T09:50:20.766Z,13.50
2019-05-09T09:52:50.309Z,13.50
2019-05-09T09:55:23.739Z,13.70
2019-05-09T09:57:57.935Z,13.90
2019-05-09T10:00:48.654Z,14.10
2019-05-09T10:03:21.952Z,14.10
2019-05-09T10:05:57.574Z,14.00
2019-05-09T10:08:29.607Z,14.00
2019-05-09T10:11:03.295Z,14.10
2019-05-09T10:13:31.793Z,14.00
2019-05-09T10:16:01.962Z,14.20
2019-05-09T10:18:38.113Z,14.30
2019-05-09T10:21:11.912Z,14.40
2019-05-09T10:23:40.668Z,14.60
2019-05-09T10:26:12.424Z,14.80
2019-05-09T10:28:41.142Z,14.50
2019-05-09T10:31:11.014Z,14.90
2019-05-09T10:33:41.005Z,15.10
2019-05-09T10:36:13.701Z,15.00
2019-05-09T10:38:42.694Z,15.30
2019-05-09T10:41:11.631Z,16.00
2019-05-09T10:43:59.350Z,15.80
2019-05-09T10:46:49.454Z,15.60
2019-05-09T10:49:08.271Z,15.70
2019-05-09T10:51:40.060Z,15.90
2019-05-09T10:54:11.193Z,15.40
2019-05-09T10:56:39.628Z,15.10
2019-05-09T10:59:08.084Z,15.30
2019-05-09T11:01:38.925Z,15.10
2019-05-09T11:04:08.236Z,15.00
2019-05-09T11:06:38.419Z,15.10
2019-05-09T11:09:09.846Z,14.90
2019-05-09T11:11:40.637Z,15.00
2019-05-09T11:14:29.641Z,15.10
2019-05-09T11:16:54.302Z,15.30
2019-05-09T11:19:21.277Z,15.30
2019-05-09T11:21:50.155Z,15.10
2019-05-09T11:24:18.993Z,15.20
2019-05-09T11:26:50.606Z,15.30
2019-05-09T11:29:22.595Z,15.40
2019-05-09T11:31:51.584Z,15.50
2019-05-09T11:34:20.089Z,15.10
2019-05-09T11:36:54.717Z,15.00
2019-05-09T11:39:36.493Z,14.90
2019-05-09T11:41:58.960Z,15.00
2019-05-09T11:44:39.770Z,15.00
2019-05-09T11:47:27.099Z,15.30
2019-05-09T11:49:42.255Z,15.30
2019-05-09T11:52:12.523Z,15.40
2019-05-09T11:54:41.276Z,15.60
2019-05-09T11:57:11.248Z,15.40
2019-05-09T11:59:42.705Z,15.20
2019-05-09T12:02:17.857Z,15.20
2019-05-09T12:04:49.640Z,15.10
2019-05-09T12:07:22.682Z,15.00
2019-05-09T12:09:48.899Z,14.80
2019-05-09T12:12:19.465Z,14.70
2019-05-09T12:14:54.242Z,14.70
2019-05-09T12:17:40.845Z,14.50
2019-05-09T12:20:12.463Z,14.60
2019-05-09T12:22:36.852Z,14.70
2019-05-09T12:25:10.860Z,14.70
2019-05-09T12:27:42.831Z,14.60
2019-05-09T12:30:15.342Z,14.50
2019-05-09T12:32:53.040Z,14.40
2019-05-09T12:35:24.153Z,14.40
2019-05-09T12:37:57.357Z,14.40
2019-05-09T12:40:25.810Z,14.50
2019-05-09T12:42:54.363Z,14.50
2019-05-09T12:45:26.033Z,14.50
2019-05-09T12:48:07.561Z,14.40
2019-05-09T12:50:30.167Z,14.40
2019-05-09T12:52:58.639Z,14.40
2019-05-09T12:55:28.897Z,14.50
2019-05-09T12:58:00.806Z,14.50
2019-05-09T13:00:34.743Z,14.60
2019-05-09T13:03:09.276Z,14.80
2019-05-09T13:05:35.406Z,14.90
2019-05-09T13:08:03.891Z,15.00
2019-05-09T13:10:38.116Z,15.20
2019-05-09T13:13:10.368Z,15.20
2019-05-09T13:15:55.063Z,15.30
2019-05-09T13:18:25.522Z,15.60
2019-05-09T13:20:53.251Z,15.70
2019-05-09T13:23:28.703Z,15.90
2019-05-09T13:26:00.685Z,15.80
2019-05-09T13:28:31.783Z,15.40
2019-05-09T13:31:00.810Z,15.30
2019-05-09T13:33:29.262Z,15.50
2019-05-09T13:36:01.278Z,15.50
2019-05-09T13:38:34.441Z,15.30
2019-05-09T13:41:03.288Z,15.20
2019-05-09T13:43:32.053Z,15.30
2019-05-09T13:46:03.559Z,15.30
2019-05-09T13:48:59.971Z,15.40
2019-05-09T13:51:09.999Z,15.50
2019-05-09T13:53:45.533Z,15.70
2019-05-09T13:56:18.293Z,15.70
2019-05-09T13:58:51.220Z,15.60
2019-05-09T14:01:19.781Z,15.70
2019-05-09T14:03:49.145Z,15.70
2019-05-09T14:06:20.079Z,15.50
2019-05-09T14:08:52.657Z,15.10
2019-05-09T14:11:23.248Z,15.10
2019-05-09T14:13:51.391Z,15.10
2019-05-09T14:16:22.545Z,15.10
2019-05-09T14:18:58.272Z,15.20
2019-05-09T14:21:29.800Z,15.10
2019-05-09T14:24:12.207Z,15.30
2019-05-09T14:26:36.690Z,15.30
2019-05-09T14:29:20.127Z,15.50
2019-05-09T14:31:45.942Z,15.40
2019-05-09T14:34:19.669Z,15.50
2019-05-09T14:36:58.665Z,15.50
2019-05-09T14:39:28.301Z,15.40
2019-05-09T14:42:01.617Z,15.60
2019-05-09T14:44:37.737Z,15.90
2019-05-09T14:47:11.372Z,15.80
2019-05-09T14:49:44.790Z,15.80
2019-05-09T14:52:18.802Z,15.70
2019-05-09T14:54:51.712Z,15.70
2019-05-09T14:57:22.251Z,16.10
2019-05-09T14:59:51.032Z,15.90
2019-05-09T15:02:19.986Z,16.00
2019-05-09T15:04:53.599Z,16.10
2019-05-09T15:07:28.381Z,16.30
2019-05-09T15:10:01.607Z,16.40
2019-05-09T15:12:38.774Z,16.50
2019-05-09T15:15:11.102Z,17.10
2019-05-09T15:17:44.333Z,16.90
2019-05-09T15:20:17.980Z,16.40
2019-05-09T15:22:51.008Z,16.20
2019-05-09T15:25:25.013Z,16.00
2019-05-09T15:27:54.922Z,16.00
2019-05-09T15:30:23.900Z,16.30
2019-05-09T15:32:53.162Z,16.30
2019-05-09T15:35:28.129Z,16.20
2019-05-09T15:38:00.473Z,16.30
2019-05-09T15:40:32.754Z,16.60
2019-05-09T15:43:01.175Z,16.60
2019-05-09T15:45:31.291Z,16.60
2019-05-09T15:48:01.733Z,17.00
2019-05-09T15:50:34.066Z,17.30
2019-05-09T15:53:04.662Z,17.20
2019-05-09T15:55:32.716Z,17.30
2019-05-09T15:58:02.707Z,17.40
2019-05-09T16:00:38.631Z,17.30
2019-05-09T16:03:11.100Z,17.50
2019-05-09T16:05:41.671Z,17.70
2019-05-09T16:08:11.588Z,17.90
2019-05-09T16:10:41.010Z,17.80
2019-05-09T16:13:11.309Z,17.80
2019-05-09T16:15:44.205Z,17.90
2019-05-09T16:18:12.762Z,17.70
2019-05-09T16:20:42.464Z,17.50
2019-05-09T16:23:12.641Z,17.40
2019-05-09T16:25:41.099Z,17.30
2019-05-09T16:28:09.525Z,17.30
2019-05-09T16:30:38.455Z,17.10
2019-05-09T16:33:08.068Z,16.90
2019-05-09T16:35:38.121Z,16.80
2019-05-09T16:38:10.732Z,16.90
2019-05-09T16:40:38.620Z,17.00
2019-05-09T16:43:09.130Z,17.10
2019-05-09T16:45:38.044Z,17.40
2019-05-09T16:48:11.321Z,17.30
2019-05-09T16:50:41.869Z,17.40
2019-05-09T16:53:09.308Z,17.30
2019-05-09T16:55:39.776Z,17.00
2019-05-09T16:58:08.730Z,17.00
2019-05-09T17:00:44.205Z,17.20
2019-05-09T17:03:12.855Z,17.10
2019-05-09T17:05:41.348Z,16.90
2019-05-09T17:08:09.845Z,16.90
2019-05-09T17:10:38.348Z,17.00
2019-05-09T17:13:07.834Z,17.20
2019-05-09T17:15:38.928Z,17.30
2019-05-09T17:18:09.738Z,17.20
2019-05-09T17:20:58.611Z,17.30
2019-05-09T17:23:29.303Z,17.30
2019-05-09T17:25:57.950Z,17.20
2019-05-09T17:28:28.427Z,17.10
2019-05-09T17:30:57.853Z,17.20
2019-05-09T17:33:28.767Z,16.90
2019-05-09T17:35:57.739Z,16.90
2019-05-09T17:38:27.858Z,16.80
2019-05-09T17:40:57.731Z,16.80
2019-05-09T17:43:27.803Z,16.80
2019-05-09T17:45:58.406Z,16.70
2019-05-09T17:48:28.484Z,16.60
2019-05-09T17:50:57.887Z,16.60
2019-05-09T17:53:29.346Z,16.60
2019-05-09T17:55:58.608Z,16.70
2019-05-09T17:58:32.995Z,16.60
2019-05-09T18:00:59.044Z,16.60
2019-05-09T18:03:29.079Z,16.50
2019-05-09T18:05:57.935Z,16.50
2019-05-09T18:08:28.342Z,16.60
2019-05-09T18:10:58.359Z,16.50
2019-05-09T18:13:29.662Z,16.50
2019-05-09T18:15:59.602Z,16.50
2019-05-09T18:18:28.527Z,16.50
2019-05-09T18:20:57.985Z,16.40
2019-05-09T18:23:28.357Z,16.40
2019-05-09T18:25:58.546Z,15.70
2019-05-09T18:28:29.263Z,15.20
2019-05-09T18:30:58.500Z,14.80
2019-05-09T18:33:31.979Z,14.40
2019-05-09T18:36:01.308Z,14.20
2019-05-09T18:38:33.098Z,13.80
2019-05-09T18:41:02.078Z,13.50
2019-05-09T18:43:30.598Z,13.10
2019-05-09T18:45:59.022Z,13.00
2019-05-09T18:48:28.020Z,13.20
2019-05-09T18:50:56.628Z,13.00
2019-05-09T18:53:25.181Z,13.00
2019-05-09T18:55:53.620Z,12.80
2019-05-09T18:58:22.319Z,12.70
2019-05-09T19:00:51.379Z,12.70
2019-05-09T19:03:20.005Z,12.70
2019-05-09T19:05:48.511Z,12.80
2019-05-09T19:08:16.956Z,12.80
2019-05-09T19:10:45.412Z,12.80
2019-05-09T19:13:13.896Z,12.80
2019-05-09T19:15:46.987Z,12.80
2019-05-09T19:18:31.116Z,13.00
2019-05-09T19:21:06.934Z,13.00
2019-05-09T19:23:35.356Z,13.10
2019-05-09T19:26:09.484Z,13.00
2019-05-09T19:28:37.911Z,12.90
2019-05-09T19:31:06.360Z,12.80
2019-05-09T19:33:34.818Z,12.80
2019-05-09T19:36:03.225Z,12.70
2019-05-09T19:38:31.678Z,12.80
2019-05-09T19:41:00.081Z,12.80
2019-05-09T19:43:28.542Z,12.80
2019-05-09T19:45:57.039Z,12.90
2019-05-09T19:48:25.575Z,12.80
2019-05-09T19:50:53.982Z,12.80
2019-05-09T19:53:22.443Z,12.70
2019-05-09T19:55:50.852Z,12.90
2019-05-09T19:58:19.302Z,12.80
2019-05-09T20:00:47.774Z,12.80
2019-05-09T20:03:16.251Z,12.80
2019-05-09T20:05:44.705Z,12.70
2019-05-09T20:08:13.147Z,12.60
2019-05-09T20:10:59.565Z,12.60
2019-05-09T20:13:38.629Z,12.50
2019-05-09T20:16:07.137Z,12.60
2019-05-09T20:18:35.532Z,12.60
2019-05-09T20:21:04.058Z,12.60
2019-05-09T20:23:32.472Z,12.70
2019-05-09T20:26:00.892Z,12.70
2019-05-09T20:28:29.377Z,12.70
2019-05-09T20:30:57.973Z,12.80
2019-05-09T20:33:26.498Z,12.80
2019-05-09T20:35:54.994Z,12.80
2019-05-09T20:38:25.168Z,12.90
2019-05-09T20:40:53.764Z,12.90
2019-05-09T20:43:22.919Z,12.90
2019-05-09T20:45:51.533Z,13.00
2019-05-09T20:48:20.350Z,13.00
2019-05-09T20:50:48.978Z,12.90
2019-05-09T20:53:17.615Z,13.10
2019-05-09T20:55:46.209Z,13.20
2019-05-09T20:58:14.831Z,13.20
2019-05-09T21:00:43.453Z,13.20
2019-05-09T21:03:12.086Z,13.10
2019-05-09T21:05:40.686Z,13.20
2019-05-09T21:08:09.392Z,13.20
2019-05-09T21:10:38.144Z,13.10
2019-05-09T21:13:06.802Z,12.70
2019-05-09T21:15:35.408Z,13.00
2019-05-09T21:18:04.336Z,13.20
2019-05-09T21:20:32.918Z,12.80
2019-05-09T21:23:01.573Z,12.40
2019-05-09T21:25:33.234Z,12.20
2019-05-09T21:28:00.521Z,12.10
2019-05-09T21:30:29.154Z,12.10
2019-05-09T21:32:57.788Z,12.00
2019-05-09T21:35:26.661Z,12.00
2019-05-09T21:37:55.106Z,11.90
2019-05-09T21:40:23.609Z,11.90
2019-05-09T21:42:52.346Z,11.90
2019-05-09T21:45:20.943Z,11.80
2019-05-09T21:47:49.414Z,11.80
2019-05-09T21:50:17.888Z,11.70
2019-05-09T21:52:46.291Z,11.80
2019-05-09T21:55:14.812Z,11.80
2019-05-09T21:57:43.248Z,11.80
2019-05-09T22:00:17.930Z,11.80
2019-05-09T22:02:46.505Z,11.70
2019-05-09T22:05:15.019Z,11.70
2019-05-09T22:07:43.503Z,11.70
2019-05-09T22:10:13.846Z,11.70
2019-05-09T22:12:42.313Z,11.50
2019-05-09T22:15:11.145Z,11.60
2019-05-09T22:17:40.154Z,11.50
2019-05-09T22:20:10.768Z,11.50
2019-05-09T22:22:39.293Z,11.50
2019-05-09T22:25:09.560Z,11.50
2019-05-09T22:27:38.197Z,11.50
2019-05-09T22:30:08.664Z,11.50
2019-05-09T22:32:37.359Z,11.40
2019-05-09T22:35:06.465Z,11.30
2019-05-09T22:37:34.934Z,11.30
2019-05-09T22:40:05.184Z,11.20
2019-05-09T22:42:33.622Z,11.10
2019-05-09T22:45:02.060Z,11.10
2019-05-09T22:47:30.492Z,11.00
2019-05-09T22:49:58.969Z,11.00
2019-05-09T22:52:27.405Z,10.90
2019-05-09T22:54:55.867Z,10.90
2019-05-09T22:57:24.269Z,10.80
2019-05-09T22:59:52.728Z,10.80
2019-05-09T23:02:21.805Z,10.70
2019-05-09T23:04:50.364Z,10.60
2019-05-09T23:07:18.864Z,10.60
2019-05-09T23:09:47.322Z,10.60
2019-05-09T23:12:16.227Z,10.60
2019-05-09T23:14:44.660Z,10.50
2019-05-09T23:17:13.220Z,10.50
2019-05-09T23:19:41.700Z,10.40
2019-05-09T23:22:10.862Z,10.50
2019-05-09T23:24:39.952Z,10.50
2019-05-09T23:27:10.097Z,10.50
2019-05-09T23:29:38.523Z,10.60
2019-05-09T23:32:25.328Z,10.60
2019-05-09T23:34:54.017Z,10.60
2019-05-09T23:37:22.464Z,10.60
2019-05-09T23:39:52.516Z,10.70
2019-05-09T23:42:20.977Z,10.70
2019-05-09T23:44:49.462Z,10.60
2019-05-09T23:47:17.910Z,10.70
2019-05-09T23:49:46.381Z,10.70
2019-05-09T23:52:14.852Z,10.70
2019-05-09T23:55:01.177Z,10.70
2019-05-09T23:57:47.438Z,10.70
